sensor_id;sensor_type;location;lat;lon;timestamp;P1;durP1;ratioP1;P2;durP2;ratioP2
61739;SDS011;47645;45.288;12.038;2023-04-01T00:04:15;25.7;;;15.2;;
61739;SDS011;47645;45.288;12.038;2023-04-01T00:14:15;26.9;;;19.4;;
61739;SDS011;47645;45.288;12.038;2023-04-01T00:24:16;34.3;;;22.1;;
61739;SDS011;47645;45.288;12.038;2023-04-01T00:34:16;20.9;;;13.6;;
61739;SDS011;47645;45.288;12.038;2023-04-01T00:44:20;39.2;;;23.5;;
61739;SDS011;47645;45.288;12.038;2023-04-01T00:54:18;45.1;;;26.0;;
61739;SDS011;47645;45.288;12.038;2023-04-01T01:04:22;40.0;;;26.0;;
61739;SDS011;47645;45.288;12.038;2023-04-01T01:14:24;37.9;;;24.3;;
61739;SDS011;47645;45.288;12.038;2023-04-01T01:24:27;34.9;;;23.1;;
61739;SDS011;47645;45.288;12.038;2023-04-01T01:34:22;39.8;;;26.5;;
61739;SDS011;47645;45.288;12.038;2023-04-01T01:44:22;43.4;;;28.8;;
61739;SDS011;47645;45.288;12.038;2023-04-01T01:54:23;52.2;;;28.1;;
61739;SDS011;47645;45.288;12.038;2023-04-01T02:04:23;43.8;;;27.0;;
61739;SDS011;47645;45.288;12.038;2023-04-01T02:14:26;40.1;;;26.9;;
61739;SDS011;47645;45.288;12.038;2023-04-01T02:29:25;44.0;;;27.4;;
61739;SDS011;47645;45.288;12.038;2023-04-01T02:34:26;38.4;;;26.0;;
61739;SDS011;47645;45.288;12.038;2023-04-01T02:44:26;38.6;;;25.1;;
61739;SDS011;47645;45.288;12.038;2023-04-01T02:54:27;31.1;;;20.7;;
61739;SDS011;47645;45.288;12.038;2023-04-01T03:04:28;20.0;;;12.9;;
61739;SDS011;47645;45.288;12.038;2023-04-01T03:14:29;37.0;;;23.1;;
61739;SDS011;47645;45.288;12.038;2023-04-01T03:24:29;31.9;;;21.3;;
61739;SDS011;47645;45.288;12.038;2023-04-01T03:34:30;26.3;;;16.3;;
61739;SDS011;47645;45.288;12.038;2023-04-01T03:44:31;21.5;;;15.2;;
61739;SDS011;47645;45.288;12.038;2023-04-01T03:54:32;20.1;;;13.6;;
61739;SDS011;47645;45.288;12.038;2023-04-01T04:04:32;15.1;;;10.6;;
61739;SDS011;47645;45.288;12.038;2023-04-01T04:14:32;13.7;;;10.0;;
61739;SDS011;47645;45.288;12.038;2023-04-01T04:24:33;20.8;;;14.6;;
61739;SDS011;47645;45.288;12.038;2023-04-01T04:34:33;17.9;;;12.5;;
61739;SDS011;47645;45.288;12.038;2023-04-01T04:44:34;14.4;;;10.4;;
61739;SDS011;47645;45.288;12.038;2023-04-01T04:54:35;24.6;;;16.2;;
61739;SDS011;47645;45.288;12.038;2023-04-01T05:04:36;18.0;;;12.8;;
61739;SDS011;47645;45.288;12.038;2023-04-01T05:14:36;13.9;;;11.0;;
61739;SDS011;47645;45.288;12.038;2023-04-01T05:24:37;15.6;;;11.1;;
61739;SDS011;47645;45.288;12.038;2023-04-01T05:34:37;16.7;;;13.1;;
61739;SDS011;47645;45.288;12.038;2023-04-01T05:44:38;13.0;;;9.5;;
61739;SDS011;47645;45.288;12.038;2023-04-01T05:54:38;14.8;;;12.0;;
61739;SDS011;47645;45.288;12.038;2023-04-01T06:04:39;35.3;;;23.5;;
61739;SDS011;47645;45.288;12.038;2023-04-01T06:14:41;21.2;;;14.1;;
61739;SDS011;47645;45.288;12.038;2023-04-01T06:24:43;158.9;;;77.3;;
61739;SDS011;47645;45.288;12.038;2023-04-01T06:34:46;160.1;;;67.0;;
61739;SDS011;47645;45.288;12.038;2023-04-01T06:44:44;153.9;;;74.7;;
61739;SDS011;47645;45.288;12.038;2023-04-01T06:54:44;74.8;;;37.5;;
61739;SDS011;47645;45.288;12.038;2023-04-01T07:04:44;29.4;;;20.9;;
61739;SDS011;47645;45.288;12.038;2023-04-01T07:14:44;25.6;;;19.3;;
61739;SDS011;47645;45.288;12.038;2023-04-01T07:24:45;32.4;;;23.3;;
61739;SDS011;47645;45.288;12.038;2023-04-01T07:34:50;31.5;;;21.8;;
61739;SDS011;47645;45.288;12.038;2023-04-01T07:44:48;32.6;;;22.2;;
61739;SDS011;47645;45.288;12.038;2023-04-01T07:54:48;29.4;;;21.8;;
61739;SDS011;47645;45.288;12.038;2023-04-01T08:04:51;32.9;;;22.5;;
61739;SDS011;47645;45.288;12.038;2023-04-01T08:14:52;33.9;;;22.6;;
61739;SDS011;47645;45.288;12.038;2023-04-01T08:24:49;23.5;;;15.9;;
61739;SDS011;47645;45.288;12.038;2023-04-01T08:35:02;17.4;;;11.1;;
61739;SDS011;47645;45.288;12.038;2023-04-01T08:45:01;21.2;;;13.8;;
61739;SDS011;47645;45.288;12.038;2023-04-01T08:54:57;17.3;;;9.6;;
61739;SDS011;47645;45.288;12.038;2023-04-01T09:04:59;17.3;;;10.9;;
61739;SDS011;47645;45.288;12.038;2023-04-01T09:14:58;16.1;;;9.2;;
61739;SDS011;47645;45.288;12.038;2023-04-01T09:26:00;17.4;;;10.2;;
61739;SDS011;47645;45.288;12.038;2023-04-01T09:34:55;17.0;;;10.3;;
61739;SDS011;47645;45.288;12.038;2023-04-01T09:44:57;13.1;;;9.6;;
61739;SDS011;47645;45.288;12.038;2023-04-01T09:54:59;14.9;;;10.0;;
61739;SDS011;47645;45.288;12.038;2023-04-01T10:05:08;14.2;;;9.5;;
61739;SDS011;47645;45.288;12.038;2023-04-01T10:15:04;13.0;;;9.0;;
61739;SDS011;47645;45.288;12.038;2023-04-01T10:25:03;15.3;;;10.8;;
61739;SDS011;47645;45.288;12.038;2023-04-01T10:35:09;14.0;;;9.3;;
61739;SDS011;47645;45.288;12.038;2023-04-01T10:45:06;15.8;;;10.4;;
61739;SDS011;47645;45.288;12.038;2023-04-01T10:55:14;14.2;;;9.3;;
61739;SDS011;47645;45.288;12.038;2023-04-01T11:05:27;10.0;;;7.3;;
61739;SDS011;47645;45.288;12.038;2023-04-01T11:20:09;16.3;;;11.3;;
61739;SDS011;47645;45.288;12.038;2023-04-01T11:30:10;14.8;;;11.1;;
61739;SDS011;47645;45.288;12.038;2023-04-01T11:40:13;14.7;;;10.8;;
61739;SDS011;47645;45.288;12.038;2023-04-01T11:50:14;14.0;;;9.8;;
61739;SDS011;47645;45.288;12.038;2023-04-01T12:00:14;14.8;;;11.0;;
61739;SDS011;47645;45.288;12.038;2023-04-01T12:10:14;17.1;;;12.1;;
61739;SDS011;47645;45.288;12.038;2023-04-01T12:20:20;13.9;;;10.1;;
61739;SDS011;47645;45.288;12.038;2023-04-01T12:30:32;9.5;;;7.3;;
61739;SDS011;47645;45.288;12.038;2023-04-01T12:40:20;12.4;;;9.1;;
61739;SDS011;47645;45.288;12.038;2023-04-01T12:50:20;14.3;;;9.8;;
61739;SDS011;47645;45.288;12.038;2023-04-01T13:00:25;14.6;;;11.0;;
61739;SDS011;47645;45.288;12.038;2023-04-01T13:10:24;9.7;;;7.8;;
61739;SDS011;47645;45.288;12.038;2023-04-01T13:20:24;11.5;;;9.2;;
61739;SDS011;47645;45.288;12.038;2023-04-01T13:30:24;11.7;;;8.0;;
61739;SDS011;47645;45.288;12.038;2023-04-01T13:40:27;10.8;;;7.8;;
61739;SDS011;47645;45.288;12.038;2023-04-01T13:50:28;12.7;;;8.4;;
61739;SDS011;47645;45.288;12.038;2023-04-01T14:00:30;13.4;;;10.3;;
61739;SDS011;47645;45.288;12.038;2023-04-01T14:10:29;13.5;;;10.3;;
61739;SDS011;47645;45.288;12.038;2023-04-01T14:20:31;12.1;;;8.6;;
61739;SDS011;47645;45.288;12.038;2023-04-01T14:30:35;13.3;;;9.7;;
61739;SDS011;47645;45.288;12.038;2023-04-01T14:40:40;15.8;;;11.4;;
61739;SDS011;47645;45.288;12.038;2023-04-01T14:50:40;12.0;;;7.6;;
61739;SDS011;47645;45.288;12.038;2023-04-01T15:00:40;13.4;;;7.2;;
61739;SDS011;47645;45.288;12.038;2023-04-01T15:10:40;8.8;;;6.2;;
61739;SDS011;47645;45.288;12.038;2023-04-01T15:20:48;13.4;;;8.0;;
61739;SDS011;47645;45.288;12.038;2023-04-01T15:30:39;10.7;;;7.6;;
61739;SDS011;47645;45.288;12.038;2023-04-01T15:40:42;11.4;;;7.9;;
61739;SDS011;47645;45.288;12.038;2023-04-01T15:50:44;12.3;;;8.0;;
61739;SDS011;47645;45.288;12.038;2023-04-01T16:00:42;11.8;;;8.3;;
61739;SDS011;47645;45.288;12.038;2023-04-01T16:10:47;10.6;;;7.5;;
61739;SDS011;47645;45.288;12.038;2023-04-01T16:20:48;8.8;;;5.9;;
61739;SDS011;47645;45.288;12.038;2023-04-01T16:30:46;8.7;;;5.6;;
61739;SDS011;47645;45.288;12.038;2023-04-01T16:40:47;12.7;;;8.3;;
61739;SDS011;47645;45.288;12.038;2023-04-01T16:50:50;15.7;;;10.7;;
61739;SDS011;47645;45.288;12.038;2023-04-01T17:00:49;13.2;;;8.8;;
61739;SDS011;47645;45.288;12.038;2023-04-01T17:10:51;13.2;;;8.2;;
61739;SDS011;47645;45.288;12.038;2023-04-01T17:20:53;12.8;;;8.1;;
61739;SDS011;47645;45.288;12.038;2023-04-01T17:30:53;17.0;;;10.2;;
61739;SDS011;47645;45.288;12.038;2023-04-01T17:40:57;19.8;;;12.7;;
61739;SDS011;47645;45.288;12.038;2023-04-01T17:50:59;28.4;;;18.8;;
61739;SDS011;47645;45.288;12.038;2023-04-01T18:00:58;24.4;;;15.7;;
61739;SDS011;47645;45.288;12.038;2023-04-01T18:10:57;26.7;;;17.8;;
61739;SDS011;47645;45.288;12.038;2023-04-01T18:20:58;21.0;;;12.2;;
61739;SDS011;47645;45.288;12.038;2023-04-01T18:30:58;29.1;;;19.8;;
61739;SDS011;47645;45.288;12.038;2023-04-01T18:41:06;35.3;;;23.2;;
61739;SDS011;47645;45.288;12.038;2023-04-01T18:51:02;27.1;;;17.5;;
61739;SDS011;47645;45.288;12.038;2023-04-01T19:01:05;17.2;;;12.7;;
61739;SDS011;47645;45.288;12.038;2023-04-01T19:11:06;19.8;;;12.5;;
61739;SDS011;47645;45.288;12.038;2023-04-01T19:21:05;18.7;;;13.7;;
61739;SDS011;47645;45.288;12.038;2023-04-01T19:31:07;29.3;;;17.5;;
61739;SDS011;47645;45.288;12.038;2023-04-01T19:41:12;29.3;;;17.6;;
61739;SDS011;47645;45.288;12.038;2023-04-01T19:51:06;22.2;;;14.5;;
61739;SDS011;47645;45.288;12.038;2023-04-01T20:01:06;31.7;;;19.1;;
61739;SDS011;47645;45.288;12.038;2023-04-01T20:11:11;26.9;;;16.9;;
61739;SDS011;47645;45.288;12.038;2023-04-01T20:21:16;22.7;;;15.2;;
61739;SDS011;47645;45.288;12.038;2023-04-01T20:31:26;25.7;;;16.0;;
61739;SDS011;47645;45.288;12.038;2023-04-01T20:41:10;27.5;;;17.6;;
61739;SDS011;47645;45.288;12.038;2023-04-01T20:51:12;23.4;;;14.9;;
61739;SDS011;47645;45.288;12.038;2023-04-01T21:01:13;21.9;;;13.4;;
61739;SDS011;47645;45.288;12.038;2023-04-01T21:11:13;15.0;;;9.7;;
61739;SDS011;47645;45.288;12.038;2023-04-01T21:21:16;19.0;;;12.4;;
61739;SDS011;47645;45.288;12.038;2023-04-01T21:31:18;17.6;;;11.0;;
61739;SDS011;47645;45.288;12.038;2023-04-01T21:41:18;15.1;;;9.8;;
61739;SDS011;47645;45.288;12.038;2023-04-01T21:51:57;13.8;;;9.8;;
61739;SDS011;47645;45.288;12.038;2023-04-01T22:01:28;31.6;;;17.9;;
61739;SDS011;47645;45.288;12.038;2023-04-01T22:11:24;20.6;;;12.8;;
61739;SDS011;47645;45.288;12.038;2023-04-01T22:21:22;30.5;;;17.6;;
61739;SDS011;47645;45.288;12.038;2023-04-01T22:31:19;26.8;;;15.3;;
61739;SDS011;47645;45.288;12.038;2023-04-01T22:41:20;50.0;;;29.8;;
61739;SDS011;47645;45.288;12.038;2023-04-01T22:51:21;52.0;;;35.6;;
61739;SDS011;47645;45.288;12.038;2023-04-01T23:01:22;58.0;;;35.5;;
61739;SDS011;47645;45.288;12.038;2023-04-01T23:11:22;60.2;;;38.7;;
61739;SDS011;47645;45.288;12.038;2023-04-01T23:21:23;54.1;;;33.4;;
61739;SDS011;47645;45.288;12.038;2023-04-01T23:31:31;53.5;;;32.3;;
61739;SDS011;47645;45.288;12.038;2023-04-01T23:41:25;58.7;;;33.7;;
61739;SDS011;47645;45.288;12.038;2023-04-01T23:51:25;64.7;;;39.2;;
